Terminal Aerodrome Forecast
Issued by NWS Sioux Falls, SD

Home | Current Version | Previous Version | Text Only | Print | Product List | Glossary On
Versions: 1 2 3 4 5 6 7 8 9 10 11 12 13 14 15 16 17 18 19 20 21
000
FTUS43 KFSD 010532
TAFSUX
TAF
KSUX 010532Z 0106/0206 12008KT P6SM SCT250 WS014/19040KT
     FM011200 18020G28KT P6SM SCT100 WS012/20047KT
     FM011500 19023G31KT P6SM SCT100
     FM011700 22020G32KT P6SM SCT030 BKN100
     FM012100 22023G33KT P6SM VCTS SCT040CB BKN100
      TEMPO 0122/0201 5SM -TSRA BR BKN035CB
     FM020200 22023G33KT P6SM SCT050 BKN100=

USA.gov is the U.S. government's official web portal to all federal, state and local government web resources and services.